sensor_id;sensor_type;location;lat;lon;timestamp;temperature;humidity
45044;DHT22;30784;48.490;9.688;2023-01-08T00:00:54;7.70;64.00
45044;DHT22;30784;48.490;9.688;2023-01-08T00:03:20;7.70;64.00
45044;DHT22;30784;48.490;9.688;2023-01-08T00:05:46;7.70;63.90
45044;DHT22;30784;48.490;9.688;2023-01-08T00:08:11;7.70;63.80
45044;DHT22;30784;48.490;9.688;2023-01-08T00:10:37;7.70;63.70
45044;DHT22;30784;48.490;9.688;2023-01-08T00:13:04;7.70;63.80
45044;DHT22;30784;48.490;9.688;2023-01-08T00:15:30;7.70;63.80
45044;DHT22;30784;48.490;9.688;2023-01-08T00:17:56;7.70;63.80
45044;DHT22;30784;48.490;9.688;2023-01-08T00:20:23;7.60;63.80
45044;DHT22;30784;48.490;9.688;2023-01-08T00:22:49;7.60;63.80
45044;DHT22;30784;48.490;9.688;2023-01-08T00:25:15;7.60;63.90
45044;DHT22;30784;48.490;9.688;2023-01-08T00:27:41;7.60;63.90
45044;DHT22;30784;48.490;9.688;2023-01-08T00:30:07;7.60;63.90
45044;DHT22;30784;48.490;9.688;2023-01-08T00:32:33;7.60;63.80
45044;DHT22;30784;48.490;9.688;2023-01-08T00:34:59;7.60;63.80
45044;DHT22;30784;48.490;9.688;2023-01-08T00:37:26;7.60;63.80
45044;DHT22;30784;48.490;9.688;2023-01-08T00:39:52;7.60;63.70
45044;DHT22;30784;48.490;9.688;2023-01-08T00:42:17;7.60;63.70
45044;DHT22;30784;48.490;9.688;2023-01-08T00:44:43;7.60;63.60
45044;DHT22;30784;48.490;9.688;2023-01-08T00:47:09;7.60;63.60
45044;DHT22;30784;48.490;9.688;2023-01-08T00:49:34;7.60;63.60
45044;DHT22;30784;48.490;9.688;2023-01-08T00:52:00;7.60;63.50
45044;DHT22;30784;48.490;9.688;2023-01-08T00:54:25;7.60;63.50
45044;DHT22;30784;48.490;9.688;2023-01-08T00:56:53;7.60;63.50
45044;DHT22;30784;48.490;9.688;2023-01-08T00:59:19;7.60;63.50
45044;DHT22;30784;48.490;9.688;2023-01-08T01:01:44;7.60;63.50
45044;DHT22;30784;48.490;9.688;2023-01-08T01:04:10;7.50;63.50
45044;DHT22;30784;48.490;9.688;2023-01-08T01:06:36;7.60;63.60
45044;DHT22;30784;48.490;9.688;2023-01-08T01:09:01;7.50;63.60
45044;DHT22;30784;48.490;9.688;2023-01-08T01:11:27;7.50;63.60
45044;DHT22;30784;48.490;9.688;2023-01-08T01:13:55;7.50;63.60
45044;DHT22;30784;48.490;9.688;2023-01-08T01:16:21;7.50;63.60
45044;DHT22;30784;48.490;9.688;2023-01-08T01:18:47;7.50;63.70
45044;DHT22;30784;48.490;9.688;2023-01-08T01:21:25;7.50;63.70
45044;DHT22;30784;48.490;9.688;2023-01-08T01:23:55;7.50;63.80
45044;DHT22;30784;48.490;9.688;2023-01-08T01:26:22;7.50;63.90
45044;DHT22;30784;48.490;9.688;2023-01-08T01:28:52;7.50;63.90
45044;DHT22;30784;48.490;9.688;2023-01-08T01:31:19;7.50;63.90
45044;DHT22;30784;48.490;9.688;2023-01-08T01:33:45;7.50;63.80
45044;DHT22;30784;48.490;9.688;2023-01-08T01:36:12;7.50;63.80
45044;DHT22;30784;48.490;9.688;2023-01-08T01:38:41;7.50;63.90
45044;DHT22;30784;48.490;9.688;2023-01-08T01:41:08;7.50;63.90
45044;DHT22;30784;48.490;9.688;2023-01-08T01:46:02;7.50;63.90
45044;DHT22;30784;48.490;9.688;2023-01-08T01:48:27;7.50;63.90
45044;DHT22;30784;48.490;9.688;2023-01-08T01:50:53;7.50;63.90
45044;DHT22;30784;48.490;9.688;2023-01-08T01:55:48;7.40;63.80
45044;DHT22;30784;48.490;9.688;2023-01-08T01:58:23;7.40;63.90
45044;DHT22;30784;48.490;9.688;2023-01-08T02:00:49;7.40;63.90
45044;DHT22;30784;48.490;9.688;2023-01-08T02:03:16;7.40;64.00
45044;DHT22;30784;48.490;9.688;2023-01-08T02:05:50;7.40;64.10
45044;DHT22;30784;48.490;9.688;2023-01-08T02:08:41;7.40;64.10
45044;DHT22;30784;48.490;9.688;2023-01-08T02:14:02;7.40;64.10
45044;DHT22;30784;48.490;9.688;2023-01-08T02:16:41;7.40;64.10
45044;DHT22;30784;48.490;9.688;2023-01-08T02:24:55;7.40;64.00
45044;DHT22;30784;48.490;9.688;2023-01-08T02:27:26;7.40;64.00
45044;DHT22;30784;48.490;9.688;2023-01-08T02:29:54;7.40;64.00
45044;DHT22;30784;48.490;9.688;2023-01-08T02:32:27;7.40;64.00
45044;DHT22;30784;48.490;9.688;2023-01-08T02:34:57;7.40;64.00
45044;DHT22;30784;48.490;9.688;2023-01-08T02:37:22;7.30;63.90
45044;DHT22;30784;48.490;9.688;2023-01-08T02:43:05;7.40;63.90
45044;DHT22;30784;48.490;9.688;2023-01-08T02:45:47;7.40;63.90
45044;DHT22;30784;48.490;9.688;2023-01-08T02:48:20;7.40;64.00
45044;DHT22;30784;48.490;9.688;2023-01-08T02:50:59;7.40;63.80
45044;DHT22;30784;48.490;9.688;2023-01-08T02:53:30;7.40;63.70
45044;DHT22;30784;48.490;9.688;2023-01-08T02:56:10;7.40;63.80
45044;DHT22;30784;48.490;9.688;2023-01-08T02:58:40;7.40;63.80
45044;DHT22;30784;48.490;9.688;2023-01-08T03:01:09;7.40;63.80
45044;DHT22;30784;48.490;9.688;2023-01-08T03:03:38;7.40;63.80
45044;DHT22;30784;48.490;9.688;2023-01-08T03:06:08;7.50;63.80
45044;DHT22;30784;48.490;9.688;2023-01-08T03:08:37;7.50;63.80
45044;DHT22;30784;48.490;9.688;2023-01-08T03:11:06;7.50;63.80
45044;DHT22;30784;48.490;9.688;2023-01-08T03:13:46;7.50;63.70
45044;DHT22;30784;48.490;9.688;2023-01-08T03:16:22;7.50;63.70
45044;DHT22;30784;48.490;9.688;2023-01-08T03:18:52;7.50;63.60
45044;DHT22;30784;48.490;9.688;2023-01-08T03:21:19;7.60;63.70
45044;DHT22;30784;48.490;9.688;2023-01-08T03:23:47;7.60;63.80
45044;DHT22;30784;48.490;9.688;2023-01-08T03:26:19;7.60;63.60
45044;DHT22;30784;48.490;9.688;2023-01-08T03:28:48;7.60;63.70
45044;DHT22;30784;48.490;9.688;2023-01-08T03:31:15;7.60;63.80
45044;DHT22;30784;48.490;9.688;2023-01-08T03:33:43;7.60;64.00
45044;DHT22;30784;48.490;9.688;2023-01-08T03:36:17;7.60;64.10
45044;DHT22;30784;48.490;9.688;2023-01-08T03:38:53;7.60;64.20
45044;DHT22;30784;48.490;9.688;2023-01-08T03:41:22;7.60;64.40
45044;DHT22;30784;48.490;9.688;2023-01-08T03:43:51;7.60;64.50
45044;DHT22;30784;48.490;9.688;2023-01-08T03:46:21;7.60;64.50
45044;DHT22;30784;48.490;9.688;2023-01-08T03:48:51;7.60;64.50
45044;DHT22;30784;48.490;9.688;2023-01-08T03:51:17;7.60;64.60
45044;DHT22;30784;48.490;9.688;2023-01-08T03:53:43;7.60;64.70
45044;DHT22;30784;48.490;9.688;2023-01-08T03:56:08;7.60;64.90
45044;DHT22;30784;48.490;9.688;2023-01-08T03:58:34;7.60;64.90
45044;DHT22;30784;48.490;9.688;2023-01-08T04:01:00;7.60;64.90
45044;DHT22;30784;48.490;9.688;2023-01-08T04:03:25;7.60;64.90
45044;DHT22;30784;48.490;9.688;2023-01-08T04:05:51;7.60;64.80
45044;DHT22;30784;48.490;9.688;2023-01-08T04:08:16;7.60;64.80
45044;DHT22;30784;48.490;9.688;2023-01-08T04:10:42;7.60;64.80
45044;DHT22;30784;48.490;9.688;2023-01-08T04:13:07;7.70;64.90
45044;DHT22;30784;48.490;9.688;2023-01-08T04:15:36;7.70;64.90
45044;DHT22;30784;48.490;9.688;2023-01-08T04:18:01;7.70;65.00
45044;DHT22;30784;48.490;9.688;2023-01-08T04:20:27;7.70;64.90
45044;DHT22;30784;48.490;9.688;2023-01-08T04:22:53;7.70;64.90
45044;DHT22;30784;48.490;9.688;2023-01-08T04:25:18;7.70;64.80
45044;DHT22;30784;48.490;9.688;2023-01-08T04:27:44;7.70;64.90
45044;DHT22;30784;48.490;9.688;2023-01-08T04:30:10;7.70;64.90
45044;DHT22;30784;48.490;9.688;2023-01-08T04:32:36;7.70;64.90
45044;DHT22;30784;48.490;9.688;2023-01-08T04:35:01;7.70;64.90
45044;DHT22;30784;48.490;9.688;2023-01-08T04:37:27;7.70;64.80
45044;DHT22;30784;48.490;9.688;2023-01-08T04:39:52;7.70;64.80
45044;DHT22;30784;48.490;9.688;2023-01-08T04:42:18;7.70;64.80
45044;DHT22;30784;48.490;9.688;2023-01-08T04:44:43;7.80;64.90
45044;DHT22;30784;48.490;9.688;2023-01-08T04:47:09;7.70;64.80
45044;DHT22;30784;48.490;9.688;2023-01-08T04:49:34;7.80;64.90
45044;DHT22;30784;48.490;9.688;2023-01-08T04:52:03;7.90;65.00
45044;DHT22;30784;48.490;9.688;2023-01-08T04:54:28;7.80;65.00
45044;DHT22;30784;48.490;9.688;2023-01-08T04:56:54;7.80;65.00
45044;DHT22;30784;48.490;9.688;2023-01-08T04:59:19;7.80;65.00
45044;DHT22;30784;48.490;9.688;2023-01-08T05:01:45;7.80;65.10
45044;DHT22;30784;48.490;9.688;2023-01-08T05:04:10;7.80;65.10
45044;DHT22;30784;48.490;9.688;2023-01-08T05:06:36;7.80;65.10
45044;DHT22;30784;48.490;9.688;2023-01-08T05:09:02;7.80;65.10
45044;DHT22;30784;48.490;9.688;2023-01-08T05:11:28;7.80;65.00
45044;DHT22;30784;48.490;9.688;2023-01-08T05:13:54;7.90;65.00
45044;DHT22;30784;48.490;9.688;2023-01-08T05:16:21;7.90;65.00
45044;DHT22;30784;48.490;9.688;2023-01-08T05:18:47;7.90;65.00
45044;DHT22;30784;48.490;9.688;2023-01-08T05:21:13;7.90;64.90
45044;DHT22;30784;48.490;9.688;2023-01-08T05:23:39;7.90;64.80
45044;DHT22;30784;48.490;9.688;2023-01-08T05:26:05;8.00;64.80
45044;DHT22;30784;48.490;9.688;2023-01-08T05:28:31;7.90;64.70
45044;DHT22;30784;48.490;9.688;2023-01-08T05:30:59;7.90;64.70
45044;DHT22;30784;48.490;9.688;2023-01-08T05:33:25;8.00;64.80
45044;DHT22;30784;48.490;9.688;2023-01-08T05:35:51;7.90;64.70
45044;DHT22;30784;48.490;9.688;2023-01-08T05:38:16;8.00;64.80
45044;DHT22;30784;48.490;9.688;2023-01-08T05:40:42;8.00;64.80
45044;DHT22;30784;48.490;9.688;2023-01-08T05:43:08;8.10;64.70
45044;DHT22;30784;48.490;9.688;2023-01-08T05:45:36;8.00;64.70
45044;DHT22;30784;48.490;9.688;2023-01-08T05:48:05;8.10;64.60
45044;DHT22;30784;48.490;9.688;2023-01-08T05:50:31;8.10;64.50
45044;DHT22;30784;48.490;9.688;2023-01-08T05:52:57;8.10;64.40
45044;DHT22;30784;48.490;9.688;2023-01-08T05:55:22;8.10;64.40
45044;DHT22;30784;48.490;9.688;2023-01-08T05:57:48;8.10;64.30
45044;DHT22;30784;48.490;9.688;2023-01-08T06:00:14;8.10;64.30
45044;DHT22;30784;48.490;9.688;2023-01-08T06:02:45;8.10;64.30
45044;DHT22;30784;48.490;9.688;2023-01-08T06:05:11;8.10;64.20
45044;DHT22;30784;48.490;9.688;2023-01-08T06:07:36;8.10;64.30
45044;DHT22;30784;48.490;9.688;2023-01-08T06:10:02;8.10;64.20
45044;DHT22;30784;48.490;9.688;2023-01-08T06:12:27;8.10;64.20
45044;DHT22;30784;48.490;9.688;2023-01-08T06:14:53;8.20;64.10
45044;DHT22;30784;48.490;9.688;2023-01-08T06:17:18;8.10;64.00
45044;DHT22;30784;48.490;9.688;2023-01-08T06:19:44;8.20;64.00
45044;DHT22;30784;48.490;9.688;2023-01-08T06:22:11;8.20;64.60
45044;DHT22;30784;48.490;9.688;2023-01-08T06:24:37;8.20;64.00
45044;DHT22;30784;48.490;9.688;2023-01-08T06:27:02;8.20;63.90
45044;DHT22;30784;48.490;9.688;2023-01-08T06:29:28;8.20;63.90
45044;DHT22;30784;48.490;9.688;2023-01-08T06:31:53;8.20;63.90
45044;DHT22;30784;48.490;9.688;2023-01-08T06:34:19;8.10;63.80
45044;DHT22;30784;48.490;9.688;2023-01-08T06:36:44;8.20;63.80
45044;DHT22;30784;48.490;9.688;2023-01-08T06:39:10;8.20;63.90
45044;DHT22;30784;48.490;9.688;2023-01-08T06:41:35;8.20;63.90
45044;DHT22;30784;48.490;9.688;2023-01-08T06:44:01;8.20;63.80
45044;DHT22;30784;48.490;9.688;2023-01-08T06:46:26;8.20;63.80
45044;DHT22;30784;48.490;9.688;2023-01-08T06:48:52;8.30;63.70
45044;DHT22;30784;48.490;9.688;2023-01-08T06:51:17;8.30;63.70
45044;DHT22;30784;48.490;9.688;2023-01-08T06:53:43;8.20;63.70
45044;DHT22;30784;48.490;9.688;2023-01-08T06:56:11;8.20;63.70
45044;DHT22;30784;48.490;9.688;2023-01-08T06:58:37;8.20;63.70
45044;DHT22;30784;48.490;9.688;2023-01-08T07:01:04;8.20;63.80
45044;DHT22;30784;48.490;9.688;2023-01-08T07:03:29;8.20;63.80
45044;DHT22;30784;48.490;9.688;2023-01-08T07:05:55;8.20;63.80
45044;DHT22;30784;48.490;9.688;2023-01-08T07:08:21;8.20;63.70
45044;DHT22;30784;48.490;9.688;2023-01-08T07:10:46;8.20;63.70
45044;DHT22;30784;48.490;9.688;2023-01-08T07:13:12;8.20;63.70
45044;DHT22;30784;48.490;9.688;2023-01-08T07:15:39;8.20;63.60
45044;DHT22;30784;48.490;9.688;2023-01-08T07:18:05;8.20;63.60
45044;DHT22;30784;48.490;9.688;2023-01-08T07:20:32;8.30;63.70
45044;DHT22;30784;48.490;9.688;2023-01-08T07:23:05;8.20;63.70
45044;DHT22;30784;48.490;9.688;2023-01-08T07:25:31;8.20;63.60
45044;DHT22;30784;48.490;9.688;2023-01-08T07:27:57;8.30;63.50
45044;DHT22;30784;48.490;9.688;2023-01-08T07:30:23;8.30;63.60
45044;DHT22;30784;48.490;9.688;2023-01-08T07:32:49;8.30;63.60
45044;DHT22;30784;48.490;9.688;2023-01-08T07:35:15;8.30;63.60
45044;DHT22;30784;48.490;9.688;2023-01-08T07:37:41;8.30;63.60
45044;DHT22;30784;48.490;9.688;2023-01-08T07:40:09;8.30;63.60
45044;DHT22;30784;48.490;9.688;2023-01-08T07:42:35;8.30;63.60
45044;DHT22;30784;48.490;9.688;2023-01-08T07:45:00;8.30;63.50
45044;DHT22;30784;48.490;9.688;2023-01-08T07:47:26;8.40;63.60
45044;DHT22;30784;48.490;9.688;2023-01-08T07:49:52;8.30;63.50
45044;DHT22;30784;48.490;9.688;2023-01-08T07:52:17;8.30;63.60
45044;DHT22;30784;48.490;9.688;2023-01-08T07:54:43;8.40;63.80
45044;DHT22;30784;48.490;9.688;2023-01-08T07:57:08;8.40;63.80
45044;DHT22;30784;48.490;9.688;2023-01-08T07:59:34;8.40;64.00
45044;DHT22;30784;48.490;9.688;2023-01-08T08:01:59;8.50;64.20
45044;DHT22;30784;48.490;9.688;2023-01-08T08:04:25;8.50;64.20
45044;DHT22;30784;48.490;9.688;2023-01-08T08:06:51;8.50;64.20
45044;DHT22;30784;48.490;9.688;2023-01-08T08:09:16;8.60;64.30
45044;DHT22;30784;48.490;9.688;2023-01-08T08:11:42;8.60;64.90
45044;DHT22;30784;48.490;9.688;2023-01-08T08:14:07;8.60;64.40
45044;DHT22;30784;48.490;9.688;2023-01-08T08:16:33;8.70;64.50
45044;DHT22;30784;48.490;9.688;2023-01-08T08:18:59;8.70;64.50
45044;DHT22;30784;48.490;9.688;2023-01-08T08:21:24;8.90;64.70
45044;DHT22;30784;48.490;9.688;2023-01-08T08:23:50;8.80;64.60
45044;DHT22;30784;48.490;9.688;2023-01-08T08:26:16;8.80;64.60
45044;DHT22;30784;48.490;9.688;2023-01-08T08:28:42;8.90;64.70
45044;DHT22;30784;48.490;9.688;2023-01-08T08:31:07;8.90;64.70
45044;DHT22;30784;48.490;9.688;2023-01-08T08:33:33;8.90;64.70
45044;DHT22;30784;48.490;9.688;2023-01-08T08:35:58;8.90;64.70
45044;DHT22;30784;48.490;9.688;2023-01-08T08:38:24;9.00;64.70
45044;DHT22;30784;48.490;9.688;2023-01-08T08:40:51;9.00;64.60
45044;DHT22;30784;48.490;9.688;2023-01-08T08:43:17;9.00;64.60
45044;DHT22;30784;48.490;9.688;2023-01-08T08:45:42;9.00;64.70
45044;DHT22;30784;48.490;9.688;2023-01-08T08:48:08;9.10;64.70
45044;DHT22;30784;48.490;9.688;2023-01-08T08:50:35;9.10;64.70
45044;DHT22;30784;48.490;9.688;2023-01-08T08:53:03;9.10;64.70
45044;DHT22;30784;48.490;9.688;2023-01-08T08:55:29;9.10;64.80
45044;DHT22;30784;48.490;9.688;2023-01-08T08:58:05;9.10;64.70
45044;DHT22;30784;48.490;9.688;2023-01-08T09:00:30;9.20;64.80
45044;DHT22;30784;48.490;9.688;2023-01-08T09:02:56;9.20;64.70
45044;DHT22;30784;48.490;9.688;2023-01-08T09:05:22;9.20;64.60
45044;DHT22;30784;48.490;9.688;2023-01-08T09:07:47;9.20;64.60
45044;DHT22;30784;48.490;9.688;2023-01-08T09:10:13;9.20;64.70
45044;DHT22;30784;48.490;9.688;2023-01-08T09:12:39;9.30;64.70
45044;DHT22;30784;48.490;9.688;2023-01-08T09:15:05;9.30;64.70
45044;DHT22;30784;48.490;9.688;2023-01-08T09:17:30;9.30;64.80
45044;DHT22;30784;48.490;9.688;2023-01-08T09:19:56;9.30;64.70
45044;DHT22;30784;48.490;9.688;2023-01-08T09:22:21;9.30;64.90
45044;DHT22;30784;48.490;9.688;2023-01-08T09:24:47;9.30;64.90
45044;DHT22;30784;48.490;9.688;2023-01-08T09:27:13;9.30;64.90
45044;DHT22;30784;48.490;9.688;2023-01-08T09:29:38;9.30;64.80
45044;DHT22;30784;48.490;9.688;2023-01-08T09:32:05;9.30;64.80
45044;DHT22;30784;48.490;9.688;2023-01-08T09:34:31;9.30;64.90
45044;DHT22;30784;48.490;9.688;2023-01-08T09:36:57;9.30;64.90
45044;DHT22;30784;48.490;9.688;2023-01-08T09:39:22;9.30;65.00
45044;DHT22;30784;48.490;9.688;2023-01-08T09:41:48;9.30;65.00
45044;DHT22;30784;48.490;9.688;2023-01-08T09:44:20;9.30;64.90
45044;DHT22;30784;48.490;9.688;2023-01-08T09:46:47;9.30;65.10
45044;DHT22;30784;48.490;9.688;2023-01-08T09:49:21;9.30;65.10
45044;DHT22;30784;48.490;9.688;2023-01-08T09:51:49;9.30;65.00
45044;DHT22;30784;48.490;9.688;2023-01-08T09:54:15;9.30;65.10
45044;DHT22;30784;48.490;9.688;2023-01-08T09:56:42;9.30;65.20
45044;DHT22;30784;48.490;9.688;2023-01-08T09:59:12;9.30;65.20
45044;DHT22;30784;48.490;9.688;2023-01-08T10:01:38;9.30;65.30
45044;DHT22;30784;48.490;9.688;2023-01-08T10:04:23;9.40;65.80
45044;DHT22;30784;48.490;9.688;2023-01-08T10:06:55;9.30;65.20
45044;DHT22;30784;48.490;9.688;2023-01-08T10:09:31;9.30;65.20
45044;DHT22;30784;48.490;9.688;2023-01-08T10:12:00;9.20;65.30
45044;DHT22;30784;48.490;9.688;2023-01-08T10:14:33;9.20;65.40
45044;DHT22;30784;48.490;9.688;2023-01-08T10:19:45;9.20;65.60
45044;DHT22;30784;48.490;9.688;2023-01-08T10:22:15;9.20;65.70
45044;DHT22;30784;48.490;9.688;2023-01-08T10:24:41;9.20;65.90
45044;DHT22;30784;48.490;9.688;2023-01-08T10:27:17;9.20;65.90
45044;DHT22;30784;48.490;9.688;2023-01-08T10:29:43;9.10;65.80
45044;DHT22;30784;48.490;9.688;2023-01-08T10:32:26;9.20;65.90
45044;DHT22;30784;48.490;9.688;2023-01-08T10:34:55;9.10;65.80
45044;DHT22;30784;48.490;9.688;2023-01-08T10:37:40;9.20;65.80
45044;DHT22;30784;48.490;9.688;2023-01-08T10:40:23;9.20;65.90
45044;DHT22;30784;48.490;9.688;2023-01-08T10:42:51;9.20;65.90
45044;DHT22;30784;48.490;9.688;2023-01-08T10:45:27;9.20;65.90
45044;DHT22;30784;48.490;9.688;2023-01-08T10:48:02;9.20;65.70
45044;DHT22;30784;48.490;9.688;2023-01-08T10:50:32;9.20;65.90
45044;DHT22;30784;48.490;9.688;2023-01-08T10:53:00;9.20;66.00
45044;DHT22;30784;48.490;9.688;2023-01-08T10:55:29;9.20;65.90
45044;DHT22;30784;48.490;9.688;2023-01-08T10:58:23;9.20;65.80
45044;DHT22;30784;48.490;9.688;2023-01-08T11:00:48;9.20;65.80
45044;DHT22;30784;48.490;9.688;2023-01-08T11:03:27;9.20;65.90
45044;DHT22;30784;48.490;9.688;2023-01-08T11:05:53;9.20;65.90
45044;DHT22;30784;48.490;9.688;2023-01-08T11:08:20;9.20;66.00
45044;DHT22;30784;48.490;9.688;2023-01-08T11:11:00;9.20;65.90
45044;DHT22;30784;48.490;9.688;2023-01-08T11:13:27;9.20;65.80
45044;DHT22;30784;48.490;9.688;2023-01-08T11:16:07;9.30;65.90
45044;DHT22;30784;48.490;9.688;2023-01-08T11:18:56;9.30;65.70
45044;DHT22;30784;48.490;9.688;2023-01-08T11:21:30;9.30;65.70
45044;DHT22;30784;48.490;9.688;2023-01-08T11:26:44;9.30;65.50
45044;DHT22;30784;48.490;9.688;2023-01-08T11:29:16;9.30;65.50
45044;DHT22;30784;48.490;9.688;2023-01-08T11:32:17;9.30;65.60
45044;DHT22;30784;48.490;9.688;2023-01-08T11:35:01;9.30;65.40
45044;DHT22;30784;48.490;9.688;2023-01-08T11:37:55;9.40;65.50
45044;DHT22;30784;48.490;9.688;2023-01-08T11:43:33;9.40;65.30
45044;DHT22;30784;48.490;9.688;2023-01-08T11:46:23;9.40;65.30
45044;DHT22;30784;48.490;9.688;2023-01-08T11:54:53;9.50;65.20
45044;DHT22;30784;48.490;9.688;2023-01-08T12:00:55;9.50;64.80
45044;DHT22;30784;48.490;9.688;2023-01-08T12:03:35;9.60;65.00
45044;DHT22;30784;48.490;9.688;2023-01-08T12:06:13;9.60;64.80
45044;DHT22;30784;48.490;9.688;2023-01-08T12:09:17;9.60;64.70
45044;DHT22;30784;48.490;9.688;2023-01-08T12:12:18;9.60;64.50
45044;DHT22;30784;48.490;9.688;2023-01-08T12:20:34;9.70;64.80
45044;DHT22;30784;48.490;9.688;2023-01-08T12:28:45;9.80;64.50
45044;DHT22;30784;48.490;9.688;2023-01-08T12:33:57;9.90;64.30
45044;DHT22;30784;48.490;9.688;2023-01-08T12:36:34;10.00;64.30
45044;DHT22;30784;48.490;9.688;2023-01-08T12:39:42;10.00;64.10
45044;DHT22;30784;48.490;9.688;2023-01-08T12:42:13;10.00;64.00
45044;DHT22;30784;48.490;9.688;2023-01-08T12:44:41;10.10;64.00
45044;DHT22;30784;48.490;9.688;2023-01-08T12:47:14;10.10;63.70
45044;DHT22;30784;48.490;9.688;2023-01-08T12:49:54;10.20;63.90
45044;DHT22;30784;48.490;9.688;2023-01-08T12:52:27;10.20;64.00
45044;DHT22;30784;48.490;9.688;2023-01-08T12:55:25;10.30;63.80
45044;DHT22;30784;48.490;9.688;2023-01-08T12:57:55;10.30;63.40
45044;DHT22;30784;48.490;9.688;2023-01-08T13:00:33;10.40;63.30
45044;DHT22;30784;48.490;9.688;2023-01-08T13:03:04;10.40;63.10
45044;DHT22;30784;48.490;9.688;2023-01-08T13:05:33;10.40;63.00
45044;DHT22;30784;48.490;9.688;2023-01-08T13:08:03;10.40;63.00
45044;DHT22;30784;48.490;9.688;2023-01-08T13:12:59;10.50;63.30
45044;DHT22;30784;48.490;9.688;2023-01-08T13:15:27;10.50;62.20
45044;DHT22;30784;48.490;9.688;2023-01-08T13:18:04;10.50;62.30
45044;DHT22;30784;48.490;9.688;2023-01-08T13:20:31;10.50;62.20
45044;DHT22;30784;48.490;9.688;2023-01-08T13:23:02;10.50;62.40
45044;DHT22;30784;48.490;9.688;2023-01-08T13:25:36;10.50;62.20
45044;DHT22;30784;48.490;9.688;2023-01-08T13:28:26;10.60;62.70
45044;DHT22;30784;48.490;9.688;2023-01-08T13:30:52;10.60;62.30
45044;DHT22;30784;48.490;9.688;2023-01-08T13:35:50;10.60;61.90
45044;DHT22;30784;48.490;9.688;2023-01-08T13:38:17;10.60;61.80
45044;DHT22;30784;48.490;9.688;2023-01-08T13:48:37;10.60;61.70
45044;DHT22;30784;48.490;9.688;2023-01-08T13:51:04;10.60;61.60
45044;DHT22;30784;48.490;9.688;2023-01-08T13:53:30;10.60;61.80
45044;DHT22;30784;48.490;9.688;2023-01-08T13:56:06;10.60;61.70
45044;DHT22;30784;48.490;9.688;2023-01-08T13:58:35;10.60;61.80
45044;DHT22;30784;48.490;9.688;2023-01-08T14:01:02;10.60;61.40
45044;DHT22;30784;48.490;9.688;2023-01-08T14:03:36;10.70;61.50
45044;DHT22;30784;48.490;9.688;2023-01-08T14:08:34;10.60;61.40
45044;DHT22;30784;48.490;9.688;2023-01-08T14:11:02;10.70;61.40
45044;DHT22;30784;48.490;9.688;2023-01-08T14:13:30;10.70;61.30
45044;DHT22;30784;48.490;9.688;2023-01-08T14:15:59;10.70;61.00
45044;DHT22;30784;48.490;9.688;2023-01-08T14:18:26;10.70;61.10
45044;DHT22;30784;48.490;9.688;2023-01-08T14:20:53;10.60;61.20
45044;DHT22;30784;48.490;9.688;2023-01-08T14:23:32;10.60;61.10
45044;DHT22;30784;48.490;9.688;2023-01-08T14:26:03;10.70;61.40
45044;DHT22;30784;48.490;9.688;2023-01-08T14:28:33;10.70;61.30
45044;DHT22;30784;48.490;9.688;2023-01-08T14:30:59;10.70;61.30
45044;DHT22;30784;48.490;9.688;2023-01-08T14:33:33;10.70;61.30
45044;DHT22;30784;48.490;9.688;2023-01-08T14:36:00;10.70;61.20
45044;DHT22;30784;48.490;9.688;2023-01-08T14:38:26;10.70;61.30
45044;DHT22;30784;48.490;9.688;2023-01-08T14:41:07;10.70;61.30
45044;DHT22;30784;48.490;9.688;2023-01-08T14:43:38;10.70;61.50
45044;DHT22;30784;48.490;9.688;2023-01-08T14:46:17;10.60;61.50
45044;DHT22;30784;48.490;9.688;2023-01-08T14:48:45;10.60;61.60
45044;DHT22;30784;48.490;9.688;2023-01-08T14:51:13;10.60;61.70
45044;DHT22;30784;48.490;9.688;2023-01-08T14:53:44;10.60;61.70
45044;DHT22;30784;48.490;9.688;2023-01-08T14:56:16;10.60;61.80
45044;DHT22;30784;48.490;9.688;2023-01-08T14:58:45;10.60;61.90
45044;DHT22;30784;48.490;9.688;2023-01-08T15:01:19;10.50;61.90
45044;DHT22;30784;48.490;9.688;2023-01-08T15:03:48;10.50;62.00
45044;DHT22;30784;48.490;9.688;2023-01-08T15:06:28;10.50;62.00
45044;DHT22;30784;48.490;9.688;2023-01-08T15:08:54;10.50;62.10
45044;DHT22;30784;48.490;9.688;2023-01-08T15:11:23;10.50;62.10
45044;DHT22;30784;48.490;9.688;2023-01-08T15:13:50;10.40;62.10
45044;DHT22;30784;48.490;9.688;2023-01-08T15:16:37;10.40;62.30
45044;DHT22;30784;48.490;9.688;2023-01-08T15:19:10;10.30;62.30
45044;DHT22;30784;48.490;9.688;2023-01-08T15:21:37;10.30;62.40
45044;DHT22;30784;48.490;9.688;2023-01-08T15:24:04;10.30;62.60
45044;DHT22;30784;48.490;9.688;2023-01-08T15:26:31;10.20;62.60
45044;DHT22;30784;48.490;9.688;2023-01-08T15:28:59;10.20;62.70
45044;DHT22;30784;48.490;9.688;2023-01-08T15:31:31;10.20;62.70
45044;DHT22;30784;48.490;9.688;2023-01-08T15:33:59;10.10;62.70
45044;DHT22;30784;48.490;9.688;2023-01-08T15:36:25;10.20;62.90
45044;DHT22;30784;48.490;9.688;2023-01-08T15:38:51;10.20;62.90
45044;DHT22;30784;48.490;9.688;2023-01-08T15:41:19;10.10;63.00
45044;DHT22;30784;48.490;9.688;2023-01-08T15:44:05;10.10;63.20
45044;DHT22;30784;48.490;9.688;2023-01-08T15:46:30;10.10;63.30
45044;DHT22;30784;48.490;9.688;2023-01-08T15:48:56;10.00;63.20
45044;DHT22;30784;48.490;9.688;2023-01-08T15:51:22;10.00;63.30
45044;DHT22;30784;48.490;9.688;2023-01-08T15:53:50;10.00;63.90
45044;DHT22;30784;48.490;9.688;2023-01-08T15:56:15;9.90;63.50
45044;DHT22;30784;48.490;9.688;2023-01-08T15:58:41;9.90;63.60
45044;DHT22;30784;48.490;9.688;2023-01-08T16:01:07;9.80;63.50
45044;DHT22;30784;48.490;9.688;2023-01-08T16:03:33;9.80;63.50
45044;DHT22;30784;48.490;9.688;2023-01-08T16:05:59;9.90;63.70
45044;DHT22;30784;48.490;9.688;2023-01-08T16:08:24;9.80;63.60
45044;DHT22;30784;48.490;9.688;2023-01-08T16:10:53;9.70;63.60
45044;DHT22;30784;48.490;9.688;2023-01-08T16:13:18;9.70;63.70
45044;DHT22;30784;48.490;9.688;2023-01-08T16:15:44;9.70;63.90
45044;DHT22;30784;48.490;9.688;2023-01-08T16:18:09;9.70;63.90
45044;DHT22;30784;48.490;9.688;2023-01-08T16:20:36;9.60;63.90
45044;DHT22;30784;48.490;9.688;2023-01-08T16:23:01;9.60;64.00
45044;DHT22;30784;48.490;9.688;2023-01-08T16:25:27;9.60;64.00
45044;DHT22;30784;48.490;9.688;2023-01-08T16:27:53;9.50;64.10
45044;DHT22;30784;48.490;9.688;2023-01-08T16:30:18;9.50;64.10
45044;DHT22;30784;48.490;9.688;2023-01-08T16:32:44;9.50;64.20
45044;DHT22;30784;48.490;9.688;2023-01-08T16:35:14;9.50;64.30
45044;DHT22;30784;48.490;9.688;2023-01-08T16:37:39;9.40;64.20
45044;DHT22;30784;48.490;9.688;2023-01-08T16:40:05;9.40;64.30
45044;DHT22;30784;48.490;9.688;2023-01-08T16:42:31;9.40;64.30
45044;DHT22;30784;48.490;9.688;2023-01-08T16:44:57;9.40;64.30
45044;DHT22;30784;48.490;9.688;2023-01-08T16:47:22;9.40;64.30
45044;DHT22;30784;48.490;9.688;2023-01-08T16:49:48;9.40;64.30
45044;DHT22;30784;48.490;9.688;2023-01-08T16:52:16;9.40;64.30
45044;DHT22;30784;48.490;9.688;2023-01-08T16:54:41;9.40;64.30
45044;DHT22;30784;48.490;9.688;2023-01-08T16:57:07;9.40;64.30